Terminal Aerodrome Forecast
Issued by NWS

Home | Current Version | Previous Version | Text Only | Print | Product List | Glossary On
Versions: 1 2 3 4 5 6 7 8 9 10 11 12 13 14 15 16 17 18 19 20 21 22 23
163
FTUS44 KLZK 200530
TAFLIT
TAF
KLIT 200530Z 2006/2106 12005KT P6SM BKN250
      TEMPO 2010/2014 5SM BR
     FM201400 15007KT P6SM BKN050 OVC100
     FM201800 18010KT P6SM VCSH BKN025 OVC050 PROB30 2020/2102 5SM
      -TSRA BR OVC025CB
     FM210200 23005KT P6SM VCSH BKN050=

USA.gov is the U.S. government's official web portal to all federal, state and local government web resources and services.